Mulgrave, Canada
Current Conditions -  °F | °C
As of 12:15 PM on Thursday 29 Jan 2015 (Local Time) from CYPD Reporting Station
Light Snow Light Snow  
Wind Chill: 16°   Ceiling: NA
Heat Index: 23°   Visibility: 9mi
Dew Point: 19°   Wind: 6mph
Humidity: 86%   Direction: 330°NNW
Pressure: 30.17"   Gusts: NA
Location:  45.62°N, 61.4°W
Report Text: CYPD 291615Z AUTO 33005KT 300V020 9SM -SN M05/M07 A3017 RMK PRESFR CLD MISG SLP225
Loading
Personal Weather Stations






























Interactive Weather Map New forecast layout! Learn more

10-Day Weather Forecast

Advertisements
Track Severe Weather on mobile